Time;durP1;ratioP1;P1;durP2;ratioP2;P2;SDS_P1;SDS_P2;PMS_P1;PMS_P2;Temp;Humidity;BMP_temperature;BMP_pressure;BME280_temperature;BME280_humidity;BME280_pressure;Samples;Min_cycle;Max_cycle;Signal;HPM_P1;HPM_P2
2022/12/03 04:01:46;;;;;;;1.60;1.60;;;4.30;90.80;;;;;;5562704;23;20588;-77
2022/12/03 04:04:19;;;;;;;1.90;1.90;;;4.40;91.00;;;;;;4996111;28;20442;-76
2022/12/03 04:06:46;;;;;;;1.77;1.77;;;4.60;90.70;;;;;;4996432;28;20428;-77
2022/12/03 04:09:12;;;;;;;1.93;1.93;;;4.60;89.60;;;;;;4996034;28;20449;-76
2022/12/03 04:14:23;;;;;;;1.50;1.50;;;4.80;89.70;;;;;;4996673;28;20409;-77
2022/12/03 04:16:52;;;;;;;2.10;2.10;;;4.90;89.10;;;;;;4996142;28;20489;-77
2022/12/03 04:19:18;;;;;;;1.87;1.87;;;4.80;88.90;;;;;;4996131;28;20453;-77
2022/12/03 04:24:29;;;;;;;1.60;1.60;;;4.70;89.30;;;;;;4996166;28;20401;-77
2022/12/03 04:29:40;;;;;;;2.27;2.17;;;4.50;89.80;;;;;;4996043;28;20534;-76
2022/12/03 04:37:36;;;;;;;2.00;2.00;;;4.60;89.80;;;;;;4995554;28;20484;-76
2022/12/03 04:40:59;;;;;;;1.53;1.53;;;4.70;89.20;;;;;;4996039;28;20453;-77
2022/12/03 04:42:50;;;;;;;1.73;1.73;;;4.80;88.80;;;;;;4995257;28;20912;-77
2022/12/03 04:45:17;;;;;;;2.00;2.00;;;4.90;88.80;;;;;;4995668;28;20460;-77
2022/12/03 04:47:45;;;;;;;1.77;1.77;;;5.00;88.40;;;;;;4995630;28;20441;-77
2022/12/03 04:50:12;;;;;;;1.57;1.57;;;5.00;88.00;;;;;;4995574;28;20820;-77
2022/12/03 04:52:38;;;;;;;1.90;1.90;;;5.10;87.80;;;;;;4995439;28;20484;-77
2022/12/03 04:55:06;;;;;;;1.60;1.60;;;5.10;87.80;;;;;;4995178;28;21021;-77
2022/12/03 04:57:32;;;;;;;1.90;1.90;;;5.00;87.60;;;;;;4995354;28;20489;-77
2022/12/03 04:59:59;;;;;;;1.90;1.90;;;5.10;87.30;;;;;;4995379;28;20482;-77
2022/12/03 05:02:26;;;;;;;1.67;1.67;;;5.20;86.70;;;;;;4994848;28;20864;-77
2022/12/03 05:04:54;;;;;;;1.70;1.70;;;5.10;86.70;;;;;;4994965;28;20465;-77
2022/12/03 05:07:21;;;;;;;1.70;1.70;;;5.20;86.50;;;;;;4995251;28;20450;-77
2022/12/03 05:09:47;;;;;;;1.80;1.80;;;5.10;86.40;;;;;;4995172;28;20445;-77
2022/12/03 05:12:14;;;;;;;1.70;1.70;;;4.90;86.50;;;;;;4995083;28;20496;-76
2022/12/03 05:14:41;;;;;;;1.60;1.60;;;4.90;87.50;;;;;;4995355;28;20460;-77
2022/12/03 05:17:08;;;;;;;1.80;1.80;;;4.90;87.10;;;;;;4996431;28;20481;-76
2022/12/03 05:22:20;;;;;;;1.70;1.70;;;5.00;87.30;;;;;;4994920;28;20456;-76
2022/12/03 05:24:47;;;;;;;2.23;2.13;;;5.10;86.90;;;;;;4994925;28;20460;-77
2022/12/03 05:27:13;;;;;;;1.43;1.43;;;5.20;86.50;;;;;;4994927;28;20453;-76
2022/12/03 05:29:40;;;;;;;1.50;1.50;;;5.30;86.20;;;;;;4994815;28;20452;-77
2022/12/03 05:32:07;;;;;;;1.40;1.40;;;5.40;86.10;;;;;;4994809;28;20842;-77
2022/12/03 05:34:33;;;;;;;1.70;1.70;;;5.40;86.00;;;;;;4994730;28;20453;-76
2022/12/03 05:37:00;;;;;;;1.90;1.90;;;5.50;85.90;;;;;;4994314;28;21002;-76
2022/12/03 05:39:28;;;;;;;1.57;1.57;;;5.60;85.70;;;;;;4994677;28;20456;-76
2022/12/03 05:44:39;;;;;;;1.70;1.70;;;5.30;86.40;;;;;;4994691;28;20429;-76
2022/12/03 05:47:05;;;;;;;1.37;1.37;;;5.40;86.00;;;;;;4994538;28;20449;-76
2022/12/03 05:49:32;;;;;;;1.80;1.80;;;5.50;85.70;;;;;;4994281;28;21069;-76
2022/12/03 05:51:59;;;;;;;1.50;1.50;;;5.60;85.60;;;;;;4994380;28;20469;-76
2022/12/03 05:54:26;;;;;;;1.70;1.70;;;5.60;85.60;;;;;;4994470;28;20473;-76
2022/12/03 05:56:54;;;;;;;1.73;1.73;;;5.30;85.60;;;;;;4994323;28;20458;-76
2022/12/03 05:59:20;;;;;;;1.67;1.67;;;5.50;86.00;;;;;;4994335;28;20446;-77
2022/12/03 06:01:47;;;;;;;1.80;1.80;;;5.50;85.60;;;;;;4994097;28;20477;-76
2022/12/03 06:04:14;;;;;;;1.57;1.57;;;5.40;85.90;;;;;;4994270;28;20449;-76
2022/12/03 06:06:40;;;;;;;1.60;1.60;;;5.50;86.10;;;;;;4994275;28;20454;-76
2022/12/03 06:09:07;;;;;;;1.87;1.87;;;5.50;85.50;;;;;;4994212;28;20456;-77
2022/12/03 06:11:35;;;;;;;1.60;1.60;;;5.50;85.50;;;;;;4994139;28;20466;-77
2022/12/03 06:14:04;;;;;;;1.53;1.53;;;5.50;85.20;;;;;;4994214;28;20490;-76
2022/12/03 06:16:30;;;;;;;1.70;1.70;;;5.50;85.30;;;;;;4994138;28;20449;-76
2022/12/03 06:18:57;;;;;;;1.73;1.73;;;5.50;85.20;;;;;;4993696;28;20488;-76
2022/12/03 06:21:24;;;;;;;1.67;1.67;;;5.40;85.40;;;;;;4993661;28;20469;-76
2022/12/03 06:23:51;;;;;;;1.63;1.63;;;5.10;85.70;;;;;;4994123;28;20484;-77
2022/12/03 06:26:17;;;;;;;1.87;1.87;;;4.90;86.80;;;;;;4993743;28;20988;-76
2022/12/03 06:28:45;;;;;;;2.00;2.00;;;4.90;87.20;;;;;;4994052;28;20452;-76
2022/12/03 06:31:13;;;;;;;2.00;1.90;;;4.90;86.70;;;;;;4993931;28;20469;-77
2022/12/03 06:33:40;;;;;;;1.67;1.67;;;4.70;86.70;;;;;;4993660;28;20452;-77
2022/12/03 06:36:07;;;;;;;1.63;1.63;;;4.70;87.40;;;;;;4993682;28;20961;-77
2022/12/03 06:38:34;;;;;;;2.03;1.93;;;4.40;87.90;;;;;;4993828;28;20485;-77
2022/12/03 06:41:00;;;;;;;1.87;1.87;;;4.50;88.50;;;;;;4993865;28;20469;-77
2022/12/03 06:43:27;;;;;;;1.60;1.60;;;4.70;88.50;;;;;;4993809;28;20480;-77
2022/12/03 06:45:54;;;;;;;1.60;1.60;;;4.90;87.70;;;;;;4993848;28;20867;-77
2022/12/03 06:48:22;;;;;;;1.80;1.80;;;5.10;87.30;;;;;;4993779;28;20445;-77
2022/12/03 06:50:48;;;;;;;1.80;1.80;;;5.20;86.90;;;;;;4993706;28;20474;-77
2022/12/03 06:53:15;;;;;;;1.50;1.50;;;5.30;86.70;;;;;;4993691;28;20445;-77
2022/12/03 06:55:42;;;;;;;1.70;1.70;;;5.30;86.30;;;;;;4993448;28;20943;-77
2022/12/03 06:58:08;;;;;;;1.50;1.50;;;5.50;86.20;;;;;;4993638;28;20485;-77
2022/12/03 07:00:35;;;;;;;1.50;1.50;;;5.50;85.80;;;;;;4993551;28;20457;-76
2022/12/03 07:03:02;;;;;;;1.70;1.70;;;5.60;85.50;;;;;;4993641;28;20449;-77
2022/12/03 07:05:30;;;;;;;1.80;1.80;;;5.70;85.30;;;;;;4993584;28;20453;-77
2022/12/03 07:07:57;;;;;;;1.70;1.70;;;5.70;85.10;;;;;;4993521;28;20855;-77
2022/12/03 07:10:23;;;;;;;1.90;1.90;;;5.80;85.00;;;;;;4993489;28;20468;-77
2022/12/03 07:12:50;;;;;;;1.90;1.90;;;5.80;84.50;;;;;;4993256;28;20977;-77
2022/12/03 07:15:17;;;;;;;1.43;1.43;;;5.70;84.50;;;;;;4993488;28;20445;-77
2022/12/03 07:17:44;;;;;;;1.77;1.77;;;5.80;84.80;;;;;;4993414;28;20512;-77
2022/12/03 07:20:11;;;;;;;2.00;1.90;;;5.80;84.70;;;;;;4993487;28;20472;-77
2022/12/03 07:22:39;;;;;;;1.30;1.30;;;5.90;84.70;;;;;;4993090;28;20994;-77
2022/12/03 07:25:07;;;;;;;1.50;1.50;;;5.90;84.30;;;;;;4993431;28;20453;-77
2022/12/03 07:27:33;;;;;;;1.70;1.70;;;5.90;84.20;;;;;;4993817;28;20445;-75
2022/12/03 07:30:00;;;;;;;1.60;1.60;;;5.90;84.00;;;;;;4993383;28;20453;-77
2022/12/03 07:32:27;;;;;;;1.70;1.70;;;5.80;84.50;;;;;;4993010;28;20986;-77
2022/12/03 07:34:53;;;;;;;1.90;1.90;;;5.70;84.50;;;;;;4993311;28;20480;-76
2022/12/03 07:37:20;;;;;;;1.83;1.83;;;5.60;84.40;;;;;;4993470;28;20449;-76
2022/12/03 07:39:48;;;;;;;1.67;1.67;;;5.40;85.50;;;;;;4992941;28;20449;-77
2022/12/03 07:42:15;;;;;;;1.50;1.50;;;5.20;85.70;;;;;;4994086;28;20476;-77
2022/12/03 07:44:41;;;;;;;1.73;1.73;;;5.10;86.00;;;;;;4993312;28;20453;-77
2022/12/03 07:47:08;;;;;;;1.97;1.87;;;5.00;86.80;;;;;;4996508;28;20453;-77
2022/12/03 07:49:35;;;;;;;2.17;2.07;;;5.10;86.80;;;;;;4996805;28;20974;-77
2022/12/03 07:52:02;;;;;;;1.40;1.40;;;5.10;86.90;;;;;;4996636;28;20480;-76
2022/12/03 07:54:28;;;;;;;1.60;1.60;;;5.20;86.90;;;;;;4996662;28;20452;-77
2022/12/03 07:56:56;;;;;;;2.03;2.00;;;5.30;86.70;;;;;;4996289;28;20950;-77
2022/12/03 07:59:23;;;;;;;1.93;1.93;;;5.10;86.60;;;;;;4996500;28;20481;-77
2022/12/03 08:01:50;;;;;;;1.77;1.77;;;5.00;87.10;;;;;;4996339;28;20853;-77
2022/12/03 08:04:17;;;;;;;2.00;1.90;;;4.90;87.90;;;;;;4996414;28;20453;-76
2022/12/03 08:06:45;;;;;;;2.13;2.13;;;4.80;87.90;;;;;;4996412;28;20540;-76
2022/12/03 08:09:12;;;;;;;2.00;2.00;;;4.60;88.70;;;;;;4996082;28;20441;-77
2022/12/03 08:11:38;;;;;;;2.00;2.00;;;4.60;89.20;;;;;;4996283;28;20472;-76
2022/12/03 08:14:12;;;;;;;2.07;2.07;;;4.50;89.00;;;;;;4996175;28;20832;-76
2022/12/03 08:16:40;;;;;;;2.17;2.17;;;4.30;89.90;;;;;;4996285;28;20434;-76
2022/12/03 08:19:10;;;;;;;2.63;2.53;;;4.20;90.10;;;;;;4996094;28;20481;-76
2022/12/03 08:21:38;;;;;;;2.50;2.40;;;4.10;90.50;;;;;;4996063;28;20462;-76
2022/12/03 08:24:13;;;;;;;1.90;1.90;;;4.10;90.90;;;;;;4996351;28;20445;-76
2022/12/03 08:26:40;;;;;;;2.00;2.00;;;4.10;91.40;;;;;;4996037;28;20457;-76
2022/12/03 08:29:12;;;;;;;1.83;1.83;;;4.00;91.20;;;;;;4995933;28;20445;-76
2022/12/03 08:31:39;;;;;;;2.00;2.00;;;4.00;91.60;;;;;;4995961;28;20623;-76
2022/12/03 08:34:20;;;;;;;2.17;2.17;;;4.00;91.40;;;;;;4995889;28;20460;-76
2022/12/03 08:36:48;;;;;;;2.30;2.20;;;4.00;91.70;;;;;;4995869;28;20815;-76
2022/12/03 08:39:28;;;;;;;1.90;1.90;;;4.00;91.70;;;;;;4995819;28;20501;-73
2022/12/03 08:44:43;;;;;;;2.00;2.00;;;4.00;91.50;;;;;;4996086;28;20410;-76
2022/12/03 08:47:15;;;;;;;2.03;2.03;;;3.90;91.40;;;;;;4996355;28;20468;-72
2022/12/03 08:49:46;;;;;;;2.00;2.00;;;3.90;91.50;;;;;;4996867;28;20433;-78
2022/12/03 08:52:16;;;;;;;2.23;2.13;;;3.80;91.60;;;;;;4995595;28;20473;-77
2022/12/03 08:54:45;;;;;;;2.53;2.43;;;3.80;91.90;;;;;;4995818;28;20461;-77
2022/12/03 08:57:24;;;;;;;2.43;2.43;;;3.60;91.80;;;;;;4994937;28;20445;-75
2022/12/03 08:59:55;;;;;;;2.10;2.10;;;3.70;92.30;;;;;;4995378;28;20469;-78
2022/12/03 09:02:28;;;;;;;2.30;2.20;;;3.70;92.10;;;;;;4995140;28;20477;-75
2022/12/03 09:04:55;;;;;;;2.50;2.40;;;3.70;92.10;;;;;;4995588;28;20433;-76
2022/12/03 09:07:21;;;;;;;2.03;2.03;;;3.70;92.10;;;;;;4995254;28;20449;-76
2022/12/03 09:09:48;;;;;;;2.50;2.40;;;3.60;91.80;;;;;;4995176;28;20456;-76
2022/12/03 09:12:15;;;;;;;2.40;2.40;;;3.60;92.30;;;;;;4995062;28;20480;-77
2022/12/03 09:14:42;;;;;;;2.20;2.20;;;3.60;92.30;;;;;;4995078;28;20461;-77
2022/12/03 09:17:10;;;;;;;2.20;2.10;;;3.60;91.90;;;;;;4995453;28;20449;-77
2022/12/03 09:19:36;;;;;;;2.10;2.00;;;3.50;92.30;;;;;;4995138;28;21105;-76
2022/12/03 09:22:03;;;;;;;2.33;2.33;;;3.50;92.50;;;;;;4994903;28;20473;-76
2022/12/03 09:24:30;;;;;;;2.10;2.10;;;3.60;92.50;;;;;;4995086;28;20450;-75
2022/12/03 09:26:56;;;;;;;2.37;2.27;;;3.60;92.40;;;;;;4995111;28;20456;-78
2022/12/03 09:29:23;;;;;;;2.43;2.33;;;3.70;91.60;;;;;;4994805;28;20476;-75
2022/12/03 09:31:50;;;;;;;2.67;2.57;;;3.60;91.70;;;;;;4994979;28;20473;-75
2022/12/03 09:34:18;;;;;;;2.60;2.50;;;3.60;91.70;;;;;;4995413;28;20472;-77
2022/12/03 09:36:45;;;;;;;2.30;2.20;;;3.70;92.10;;;;;;4995483;28;20460;-77
2022/12/03 09:39:11;;;;;;;2.17;2.13;;;3.90;91.60;;;;;;4995797;28;20846;-78
2022/12/03 09:41:38;;;;;;;2.50;2.40;;;3.80;90.70;;;;;;4994849;28;20473;-77
2022/12/03 09:44:05;;;;;;;2.70;2.60;;;3.80;90.80;;;;;;4994626;28;20461;-76
2022/12/03 09:46:33;;;;;;;2.63;2.53;;;3.80;90.40;;;;;;4994579;28;20449;-76
2022/12/03 09:49:01;;;;;;;2.43;2.33;;;3.80;90.40;;;;;;4994543;28;20453;-75
2022/12/03 09:51:32;;;;;;;2.07;2.07;;;3.90;90.50;;;;;;4994436;28;20476;-76
2022/12/03 09:53:59;;;;;;;2.73;2.63;;;3.90;90.10;;;;;;4994193;28;20937;-76
2022/12/03 09:56:26;;;;;;;2.43;2.43;;;3.90;90.10;;;;;;4994410;28;20449;-76
2022/12/03 09:58:53;;;;;;;2.20;2.20;;;3.90;90.10;;;;;;4994257;28;20481;-75
2022/12/03 10:01:20;;;;;;;2.00;2.00;;;4.00;90.10;;;;;;4994560;28;20493;-77
2022/12/03 10:03:48;;;;;;;2.30;2.30;;;4.10;89.30;;;;;;4994509;28;20430;-77
2022/12/03 10:06:18;;;;;;;2.70;2.60;;;4.00;89.40;;;;;;4994507;28;20540;-75
2022/12/03 10:08:49;;;;;;;2.70;2.60;;;4.00;89.40;;;;;;4994637;28;20445;-74
2022/12/03 10:11:17;;;;;;;3.27;3.17;;;3.90;89.20;;;;;;4994666;28;20476;-76
2022/12/03 10:13:44;;;;;;;2.67;2.57;;;3.80;89.40;;;;;;4994749;28;20449;-76
2022/12/03 10:16:14;;;;;;;2.10;2.10;;;3.70;89.30;;;;;;4994869;28;20456;-76
2022/12/03 10:18:43;;;;;;;2.10;2.10;;;3.60;89.70;;;;;;4994515;28;20998;-75
2022/12/03 10:21:22;;;;;;;2.40;2.30;;;3.50;89.90;;;;;;4994407;28;20468;-77
2022/12/03 10:24:17;;;;;;;2.33;2.23;;;3.70;90.00;;;;;;4996335;28;20907;-78
2022/12/03 10:26:46;;;;;;;2.10;2.10;;;3.40;89.10;;;;;;4994294;28;20930;-74
2022/12/03 10:29:13;;;;;;;1.80;1.80;;;3.60;89.90;;;;;;4993937;28;20446;-75
2022/12/03 10:31:40;;;;;;;2.30;2.30;;;3.60;89.70;;;;;;4994003;28;20474;-76
2022/12/03 10:34:08;;;;;;;2.00;2.00;;;3.60;89.00;;;;;;4994006;28;20456;-75
2022/12/03 10:36:35;;;;;;;2.00;2.00;;;3.50;89.10;;;;;;4993992;28;20456;-76
2022/12/03 10:39:12;;;;;;;2.10;2.10;;;3.50;89.10;;;;;;4993475;28;21001;-76
2022/12/03 10:41:40;;;;;;;2.17;2.13;;;3.40;89.70;;;;;;4993540;28;20469;-75
2022/12/03 10:44:14;;;;;;;1.83;1.83;;;3.40;89.30;;;;;;4993910;28;20465;-75
2022/12/03 10:46:40;;;;;;;1.93;1.93;;;3.10;89.30;;;;;;4993863;28;20464;-76
2022/12/03 10:49:10;;;;;;;2.20;2.10;;;3.00;89.70;;;;;;4993881;28;20539;-77
2022/12/03 10:51:38;;;;;;;1.43;1.43;;;3.00;90.30;;;;;;4993881;28;20560;-71
2022/12/03 10:54:14;;;;;;;1.87;1.87;;;3.10;91.60;;;;;;4993922;28;20977;-76
2022/12/03 10:56:40;;;;;;;1.43;1.43;;;3.40;91.70;;;;;;4994880;28;20429;-76
2022/12/03 10:59:12;;;;;;;1.50;1.50;;;3.50;88.30;;;;;;4993914;28;20488;-77
2022/12/03 11:01:39;;;;;;;1.57;1.57;;;3.50;87.60;;;;;;4996796;28;20477;-78
2022/12/03 11:04:06;;;;;;;1.50;1.50;;;3.60;87.80;;;;;;5013074;28;20484;-77
2022/12/03 11:06:33;;;;;;;2.20;2.20;;;3.80;87.60;;;;;;5014515;28;20476;-77
2022/12/03 11:08:59;;;;;;;1.90;1.90;;;3.70;87.20;;;;;;5014950;28;20440;-77
2022/12/03 11:11:30;;;;;;;1.80;1.80;;;3.70;87.70;;;;;;5013924;28;20477;-78
2022/12/03 11:13:58;;;;;;;1.87;1.87;;;3.60;88.10;;;;;;5013915;28;20437;-78
2022/12/03 11:17:07;;;;;;;1.70;1.70;;;3.70;88.20;;;;;;5014147;28;20436;-78
2022/12/03 11:19:48;;;;;;;2.13;2.03;;;3.60;87.40;;;;;;5006223;28;20473;-78
2022/12/03 11:22:38;;;;;;;1.90;1.90;;;3.60;88.20;;;;;;5005074;28;20473;-75
2022/12/03 11:25:54;;;;;;;1.70;1.70;;;3.60;88.40;;;;;;5004956;28;20437;-79
2022/12/03 11:28:52;;;;;;;2.27;2.17;;;3.50;88.60;;;;;;4998379;28;20430;-78
2022/12/03 11:31:43;;;;;;;2.10;2.10;;;3.60;88.60;;;;;;4999249;28;20508;-78
2022/12/03 11:34:39;;;;;;;1.80;1.80;;;3.80;88.20;;;;;;4979199;28;20980;-78
2022/12/03 11:37:25;;;;;;;2.07;1.97;;;3.70;88.10;;;;;;4999256;28;20429;-79
2022/12/03 11:40:31;;;;;;;2.03;1.97;;;3.70;88.20;;;;;;4999717;28;20465;-79
2022/12/03 11:42:58;;;;;;;1.90;1.90;;;3.50;87.90;;;;;;4998108;28;20441;-78
2022/12/03 11:45:34;;;;;;;1.90;1.90;;;3.40;88.50;;;;;;4997758;28;20476;-78
2022/12/03 11:48:09;;;;;;;1.83;1.83;;;3.50;88.90;;;;;;4997176;28;20433;-78
2022/12/03 11:50:38;;;;;;;1.80;1.80;;;3.40;88.60;;;;;;4996802;28;20429;-78
2022/12/03 11:53:14;;;;;;;1.77;1.77;;;3.40;88.50;;;;;;4996728;28;20535;-78
2022/12/03 11:55:45;;;;;;;2.13;2.03;;;3.50;89.40;;;;;;4997081;28;20436;-78
2022/12/03 11:58:16;;;;;;;1.60;1.60;;;3.40;88.60;;;;;;4996836;28;20801;-78
2022/12/03 12:00:50;;;;;;;2.10;2.10;;;3.40;88.70;;;;;;4997241;28;20488;-79
2022/12/03 12:03:26;;;;;;;1.60;1.60;;;3.50;88.80;;;;;;4996825;28;20440;-78
2022/12/03 12:06:07;;;;;;;1.70;1.70;;;3.50;88.70;;;;;;4996881;28;20893;-78
2022/12/03 12:08:34;;;;;;;1.77;1.77;;;3.50;88.10;;;;;;4997937;28;20452;-77
2022/12/03 12:11:02;;;;;;;1.97;1.97;;;3.40;88.20;;;;;;4996079;28;20986;-78
2022/12/03 12:13:54;;;;;;;1.77;1.77;;;3.30;88.80;;;;;;4995896;28;20449;-78
2022/12/03 12:16:48;;;;;;;1.70;1.70;;;3.20;89.00;;;;;;4996283;28;20448;-77
2022/12/03 12:19:45;;;;;;;2.10;2.10;;;3.20;89.20;;;;;;4996204;28;20469;-78
2022/12/03 12:22:14;;;;;;;1.43;1.43;;;3.30;89.40;;;;;;4917068;29;20477;-78
2022/12/03 12:25:00;;;;;;;1.60;1.60;;;3.40;89.60;;;;;;4960260;28;20464;-78
2022/12/03 12:27:33;;;;;;;2.07;2.07;;;3.60;88.60;;;;;;4996594;28;20460;-78
2022/12/03 12:30:01;;;;;;;1.40;1.40;;;3.60;88.40;;;;;;4996136;28;20445;-78
2022/12/03 12:32:31;;;;;;;1.80;1.80;;;3.70;88.00;;;;;;4995333;28;20481;-78
2022/12/03 12:35:02;;;;;;;1.53;1.53;;;3.60;88.10;;;;;;4996051;28;20453;-78
2022/12/03 12:37:34;;;;;;;1.50;1.50;;;3.50;88.00;;;;;;4996144;28;20437;-78
2022/12/03 12:40:06;;;;;;;2.10;2.03;;;3.50;88.10;;;;;;4995716;28;20465;-78
2022/12/03 12:42:34;;;;;;;1.90;1.90;;;3.40;88.00;;;;;;4995817;28;20470;-77
2022/12/03 12:45:12;;;;;;;2.00;2.00;;;3.30;88.50;;;;;;4995793;28;20453;-79
2022/12/03 12:47:47;;;;;;;1.30;1.30;;;3.40;89.10;;;;;;4996082;28;20433;-78
2022/12/03 12:50:14;;;;;;;1.50;1.50;;;3.50;88.80;;;;;;4995748;28;20426;-78
2022/12/03 12:52:49;;;;;;;1.50;1.50;;;3.70;88.50;;;;;;4995574;28;20469;-77
2022/12/03 12:55:16;;;;;;;2.00;1.90;;;3.60;87.70;;;;;;4995607;28;20440;-78
2022/12/03 12:57:44;;;;;;;1.77;1.77;;;3.40;88.20;;;;;;4995631;28;20460;-79
2022/12/03 13:00:15;;;;;;;1.60;1.60;;;3.40;88.50;;;;;;4995457;28;20543;-79
2022/12/03 13:02:48;;;;;;;1.80;1.80;;;3.40;88.60;;;;;;4994461;28;20477;-79
2022/12/03 13:05:15;;;;;;;1.50;1.50;;;3.60;88.20;;;;;;4994695;28;20785;-77
2022/12/03 13:07:43;;;;;;;1.63;1.63;;;3.40;88.10;;;;;;4994412;28;20453;-78
2022/12/03 13:10:36;;;;;;;1.80;1.80;;;3.40;88.50;;;;;;4994067;28;20939;-78
2022/12/03 13:13:34;;;;;;;1.80;1.80;;;3.40;88.50;;;;;;4975763;28;20450;-78
2022/12/03 13:16:05;;;;;;;1.77;1.77;;;3.30;88.70;;;;;;4994363;28;20434;-78
2022/12/03 13:18:39;;;;;;;1.63;1.63;;;3.30;88.70;;;;;;4994247;28;20434;-78
2022/12/03 13:21:21;;;;;;;1.60;1.60;;;3.10;89.00;;;;;;4994082;28;21005;-77
2022/12/03 13:23:49;;;;;;;1.73;1.73;;;3.00;89.30;;;;;;4993966;28;20914;-77
2022/12/03 13:26:22;;;;;;;1.63;1.63;;;2.90;89.90;;;;;;4994119;28;20950;-78
2022/12/03 13:28:49;;;;;;;2.20;2.10;;;2.90;90.20;;;;;;4994105;28;20461;-78
2022/12/03 13:31:23;;;;;;;1.87;1.87;;;3.00;90.10;;;;;;4994121;28;20500;-78
2022/12/03 13:33:52;;;;;;;1.70;1.70;;;2.90;90.00;;;;;;4993732;28;20903;-77
2022/12/03 13:36:21;;;;;;;1.70;1.70;;;2.90;90.60;;;;;;4993937;28;20863;-77
2022/12/03 13:38:48;;;;;;;1.40;1.40;;;2.80;90.00;;;;;;4993965;28;20457;-78
2022/12/03 13:44:12;;;;;;;2.20;2.10;;;2.70;90.40;;;;;;4993940;28;20468;-78
2022/12/03 13:46:38;;;;;;;1.80;1.80;;;2.70;90.50;;;;;;4993881;28;20443;-78
2022/12/03 13:49:13;;;;;;;1.97;1.97;;;2.70;90.60;;;;;;4993729;28;20455;-78
2022/12/03 13:51:41;;;;;;;1.90;1.80;;;2.80;90.40;;;;;;4993735;28;20480;-78
2022/12/03 13:54:13;;;;;;;2.23;2.13;;;2.90;90.00;;;;;;4993712;28;20449;-77
2022/12/03 13:56:39;;;;;;;1.70;1.70;;;2.90;90.50;;;;;;4993398;28;20916;-77
2022/12/03 13:59:07;;;;;;;1.97;1.97;;;3.20;89.80;;;;;;4993575;28;20445;-78
2022/12/03 14:01:34;;;;;;;2.00;2.00;;;3.20;89.20;;;;;;4152023;28;24017562;-78
2022/12/03 14:04:01;;;;;;;1.97;1.87;;;3.10;89.40;;;;;;4954209;28;20275;-77
2022/12/03 14:06:29;;;;;;;2.50;2.40;;;3.10;89.30;;;;;;4994319;28;20448;-77
2022/12/03 14:08:56;;;;;;;2.20;2.10;;;3.20;89.10;;;;;;4993958;28;20802;-78
2022/12/03 14:14:07;;;;;;;1.50;1.50;;;3.10;89.50;;;;;;4994013;28;20433;-78
2022/12/03 14:16:34;;;;;;;2.00;2.00;;;3.10;89.20;;;;;;4994205;28;20977;-77
2022/12/03 14:19:01;;;;;;;1.93;1.93;;;3.10;89.10;;;;;;4993970;28;20448;-78
2022/12/03 14:21:29;;;;;;;1.60;1.60;;;3.10;89.00;;;;;;4994081;28;20476;-78
2022/12/03 14:23:56;;;;;;;2.13;2.10;;;3.20;89.10;;;;;;4994082;28;20469;-78
2022/12/03 14:26:22;;;;;;;1.43;1.43;;;3.40;89.20;;;;;;4994155;28;20453;-78
2022/12/03 14:28:49;;;;;;;2.20;2.20;;;3.60;88.20;;;;;;4993970;28;20449;-78
2022/12/03 14:31:16;;;;;;;1.50;1.50;;;3.50;87.70;;;;;;4993568;28;20472;-78
2022/12/03 14:33:43;;;;;;;2.20;2.20;;;3.50;87.80;;;;;;4993969;28;20445;-78
2022/12/03 14:36:09;;;;;;;2.00;1.90;;;3.20;88.20;;;;;;4993903;28;20459;-78
2022/12/03 14:38:37;;;;;;;1.80;1.80;;;3.00;88.80;;;;;;4993901;28;20460;-77
2022/12/03 14:42:11;;;;;;;1.70;1.70;;;3.00;89.30;;;;;;4993760;28;20911;-78
2022/12/03 14:43:51;;;;;;;1.90;1.90;;;2.80;89.70;;;;;;4993448;28;20445;-77
2022/12/03 14:46:18;;;;;;;2.17;2.07;;;2.60;90.10;;;;;;4993827;28;20463;-78
2022/12/03 14:48:44;;;;;;;2.00;2.00;;;2.60;90.70;;;;;;4993746;28;20448;-78
2022/12/03 14:51:11;;;;;;;1.80;1.80;;;2.70;90.60;;;;;;4993711;28;20523;-77
2022/12/03 14:53:39;;;;;;;1.80;1.80;;;2.70;90.50;;;;;;4993806;28;20445;-77
2022/12/03 14:56:06;;;;;;;1.80;1.80;;;2.60;90.50;;;;;;4996947;28;20950;-78
2022/12/03 14:58:33;;;;;;;2.07;2.07;;;2.60;90.30;;;;;;4997372;28;20872;-78
2022/12/03 15:01:00;;;;;;;2.13;2.13;;;2.70;90.10;;;;;;4997426;28;20871;-78
2022/12/03 15:03:27;;;;;;;1.90;1.90;;;2.60;90.30;;;;;;4997658;28;20436;-78
2022/12/03 15:05:53;;;;;;;2.10;2.10;;;2.60;90.30;;;;;;4997547;28;20456;-77
2022/12/03 15:08:20;;;;;;;1.90;1.90;;;2.70;90.10;;;;;;4997483;28;20454;-78
2022/12/03 15:10:48;;;;;;;1.77;1.77;;;2.70;89.70;;;;;;4997676;28;20484;-78
2022/12/03 15:13:15;;;;;;;2.10;2.10;;;2.60;89.90;;;;;;4997649;28;20445;-77
2022/12/03 15:15:41;;;;;;;1.83;1.83;;;2.50;90.50;;;;;;4997407;28;20460;-78
2022/12/03 15:18:08;;;;;;;1.67;1.67;;;2.50;90.30;;;;;;4997029;28;20448;-78
2022/12/03 15:20:36;;;;;;;1.80;1.80;;;2.50;90.50;;;;;;4997426;28;20492;-78
2022/12/03 15:23:03;;;;;;;1.60;1.60;;;2.50;90.70;;;;;;4996914;28;20460;-77
2022/12/03 15:25:29;;;;;;;1.80;1.80;;;2.30;90.80;;;;;;4997236;28;20453;-78
2022/12/03 15:27:57;;;;;;;1.80;1.80;;;2.20;91.20;;;;;;4996843;28;20453;-77
2022/12/03 15:30:24;;;;;;;1.90;1.90;;;2.30;91.10;;;;;;4997030;28;20854;-77
2022/12/03 15:32:51;;;;;;;1.70;1.70;;;2.30;91.70;;;;;;4997051;28;20475;-77
2022/12/03 15:35:18;;;;;;;2.13;2.13;;;2.40;91.30;;;;;;4997032;28;20460;-78
2022/12/03 15:37:44;;;;;;;1.87;1.87;;;2.50;91.10;;;;;;4997006;28;20461;-78
2022/12/03 15:40:12;;;;;;;2.20;2.10;;;2.50;90.70;;;;;;4996851;28;20898;-78
2022/12/03 15:42:39;;;;;;;2.03;2.03;;;2.60;90.70;;;;;;4996745;28;20846;-77
2022/12/03 15:45:08;;;;;;;2.10;2.10;;;2.70;90.60;;;;;;4996892;28;20448;-78
2022/12/03 15:47:35;;;;;;;2.17;2.10;;;2.90;90.20;;;;;;4997061;28;20451;-78
2022/12/03 15:50:01;;;;;;;1.70;1.70;;;2.80;89.70;;;;;;4996765;28;20821;-78
2022/12/03 15:52:28;;;;;;;1.77;1.73;;;3.00;90.10;;;;;;4996644;28;20473;-78
2022/12/03 15:54:55;;;;;;;1.30;1.30;;;2.90;89.20;;;;;;4996361;28;20453;-77
2022/12/03 15:57:22;;;;;;;2.00;2.00;;;2.70;89.60;;;;;;4997380;28;20453;-77
2022/12/03 15:59:49;;;;;;;2.23;2.13;;;2.70;89.50;;;;;;4996480;28;21005;-78
2022/12/03 16:02:17;;;;;;;2.00;1.90;;;2.60;89.80;;;;;;4996427;28;20489;-78
2022/12/03 16:04:44;;;;;;;1.90;1.90;;;2.80;90.00;;;;;;4996504;28;20450;-78
2022/12/03 16:07:10;;;;;;;1.73;1.73;;;2.70;89.10;;;;;;4995187;28;20457;-78
2022/12/03 16:09:37;;;;;;;2.07;2.07;;;2.70;88.80;;;;;;4996384;28;20449;-78
2022/12/03 16:12:04;;;;;;;1.83;1.83;;;2.60;89.20;;;;;;4996263;28;20544;-77
2022/12/03 16:14:31;;;;;;;1.77;1.77;;;2.80;89.40;;;;;;4996318;28;20441;-78
2022/12/03 16:16:58;;;;;;;1.60;1.60;;;2.70;89.20;;;;;;4996930;28;20480;-78
2022/12/03 16:19:26;;;;;;;1.40;1.40;;;2.70;89.70;;;;;;4996227;28;20480;-78
2022/12/03 16:21:53;;;;;;;1.80;1.73;;;2.80;89.50;;;;;;4996048;28;20495;-78
2022/12/03 16:24:20;;;;;;;2.07;2.07;;;2.70;88.80;;;;;;4995840;28;20946;-78
2022/12/03 16:26:46;;;;;;;1.90;1.90;;;2.50;89.30;;;;;;4996086;28;20524;-78
2022/12/03 16:29:13;;;;;;;1.97;1.97;;;2.50;89.90;;;;;;4996302;28;20456;-79
2022/12/03 16:31:40;;;;;;;1.77;1.77;;;2.60;89.70;;;;;;4995940;28;20539;-79
2022/12/03 16:34:07;;;;;;;1.67;1.67;;;2.60;89.70;;;;;;4995912;28;20449;-79
2022/12/03 16:36:35;;;;;;;1.63;1.63;;;2.80;89.80;;;;;;4995680;28;20456;-79
2022/12/03 16:39:01;;;;;;;1.70;1.70;;;2.90;89.00;;;;;;4995927;28;20456;-79
2022/12/03 16:41:28;;;;;;;1.97;1.97;;;2.80;88.80;;;;;;4995696;28;20514;-79
2022/12/03 16:43:55;;;;;;;2.10;2.10;;;2.80;88.90;;;;;;4995793;28;20449;-79
2022/12/03 16:46:24;;;;;;;2.30;2.20;;;2.70;89.00;;;;;;4995723;28;20444;-78
2022/12/03 16:48:52;;;;;;;2.50;2.40;;;2.60;89.50;;;;;;4995702;28;20550;-79
2022/12/03 16:51:19;;;;;;;1.70;1.70;;;2.60;89.60;;;;;;4995278;28;21009;-79
2022/12/03 16:53:47;;;;;;;2.27;2.27;;;2.50;90.20;;;;;;4995625;28;20500;-78
2022/12/03 16:56:13;;;;;;;1.97;1.97;;;2.40;90.30;;;;;;4995516;28;20457;-78
2022/12/03 16:58:40;;;;;;;1.93;1.93;;;2.40;90.50;;;;;;4995544;28;20453;-79
2022/12/03 17:01:07;;;;;;;1.73;1.73;;;2.30;90.70;;;;;;4995244;28;20540;-79
2022/12/03 17:03:34;;;;;;;1.77;1.77;;;2.20;91.10;;;;;;4995463;28;20850;-79
2022/12/03 17:06:01;;;;;;;1.70;1.70;;;2.20;91.60;;;;;;4995640;28;20508;-78
2022/12/03 17:08:28;;;;;;;1.97;1.97;;;2.20;91.40;;;;;;4995336;28;20464;-79
2022/12/03 17:10:56;;;;;;;2.00;2.00;;;2.40;91.40;;;;;;4995665;28;20472;-79
2022/12/03 17:13:23;;;;;;;1.87;1.87;;;2.50;91.10;;;;;;4995198;28;20449;-78
2022/12/03 17:15:50;;;;;;;2.10;2.10;;;2.70;90.60;;;;;;4995217;28;20472;-77
2022/12/03 17:18:16;;;;;;;1.77;1.77;;;2.70;89.70;;;;;;4994711;28;20460;-77
2022/12/03 17:20:43;;;;;;;2.00;2.00;;;2.60;90.30;;;;;;4994946;28;20485;-77
2022/12/03 17:23:10;;;;;;;2.00;2.00;;;2.70;90.00;;;;;;4994977;28;20448;-76
2022/12/03 17:25:37;;;;;;;1.43;1.43;;;2.80;90.10;;;;;;4994955;28;20449;-77
2022/12/03 17:28:05;;;;;;;2.07;2.07;;;2.90;89.80;;;;;;4994914;28;20471;-77
2022/12/03 17:30:32;;;;;;;1.90;1.90;;;2.80;89.30;;;;;;4994819;28;20452;-77
2022/12/03 17:32:58;;;;;;;2.03;1.93;;;2.70;90.00;;;;;;4994870;28;20445;-77
2022/12/03 17:35:25;;;;;;;2.10;2.10;;;2.70;90.10;;;;;;4994523;28;20957;-76
2022/12/03 17:37:52;;;;;;;2.20;2.10;;;2.70;90.20;;;;;;4994753;28;20453;-76